createdAt,value
2022-12-14T00:00:39.615Z,998.64
2022-12-14T00:01:39.589Z,998.61
2022-12-14T00:02:39.656Z,998.58
2022-12-14T00:03:39.588Z,998.59
2022-12-14T00:04:39.444Z,998.55
2022-12-14T00:05:39.412Z,998.54
2022-12-14T00:06:39.381Z,998.53
2022-12-14T00:07:39.347Z,998.49
2022-12-14T00:08:41.896Z,998.44
2022-12-14T00:09:39.280Z,998.47
2022-12-14T00:10:39.244Z,998.45
2022-12-14T00:11:39.211Z,998.48
2022-12-14T00:12:39.179Z,998.43
2022-12-14T00:13:39.149Z,998.43
2022-12-14T00:14:39.115Z,998.41
2022-12-14T00:15:39.207Z,998.39
2022-12-14T00:16:39.046Z,998.41
2022-12-14T00:17:39.015Z,998.42
2022-12-14T00:18:38.980Z,998.38
2022-12-14T00:19:38.948Z,998.41
2022-12-14T00:20:38.912Z,998.37
2022-12-14T00:21:38.884Z,998.37
2022-12-14T00:22:38.849Z,998.33
2022-12-14T00:23:39.397Z,998.34
2022-12-14T00:24:38.785Z,998.34
2022-12-14T00:25:38.754Z,998.31
2022-12-14T00:26:38.720Z,998.27
2022-12-14T00:27:38.681Z,998.28
2022-12-14T00:28:38.658Z,998.32
2022-12-14T00:29:38.616Z,998.31
2022-12-14T00:30:38.586Z,998.29
2022-12-14T00:31:38.637Z,998.30
2022-12-14T00:32:38.523Z,998.28
2022-12-14T00:33:38.488Z,998.31
2022-12-14T00:34:38.454Z,998.27
2022-12-14T00:35:38.419Z,998.24
2022-12-14T00:36:38.392Z,998.26
2022-12-14T00:37:38.355Z,998.18
2022-12-14T00:38:38.335Z,998.20
2022-12-14T00:39:38.288Z,998.17
2022-12-14T00:40:38.259Z,998.16
2022-12-14T00:41:38.223Z,998.13
2022-12-14T00:42:38.193Z,998.13
2022-12-14T00:43:38.157Z,998.10
2022-12-14T00:44:38.121Z,998.09
2022-12-14T00:45:38.092Z,998.07
2022-12-14T00:46:38.115Z,998.13
2022-12-14T00:47:40.865Z,998.12
2022-12-14T00:48:37.992Z,998.11
2022-12-14T00:49:37.961Z,998.10
2022-12-14T00:50:37.927Z,998.06
2022-12-14T00:51:37.894Z,998.08
2022-12-14T00:52:37.860Z,998.09
2022-12-14T00:53:37.824Z,998.12
2022-12-14T00:54:37.793Z,998.05
2022-12-14T00:55:37.759Z,998.03
2022-12-14T00:56:37.726Z,998.06
2022-12-14T00:57:37.693Z,998.03
2022-12-14T00:58:37.662Z,998.05
2022-12-14T00:59:37.632Z,998.07
2022-12-14T01:00:37.595Z,998.07
2022-12-14T01:01:37.722Z,998.05
2022-12-14T01:02:37.576Z,998.04
2022-12-14T01:03:37.617Z,997.99
2022-12-14T01:04:37.462Z,998.01
2022-12-14T01:05:37.426Z,997.98
2022-12-14T01:06:37.398Z,997.97
2022-12-14T01:07:37.363Z,998.01
2022-12-14T01:08:37.332Z,998.00
2022-12-14T01:09:37.297Z,998.01
2022-12-14T01:10:37.271Z,998.00
2022-12-14T01:11:37.229Z,998.00
2022-12-14T01:12:37.197Z,997.95
2022-12-14T01:13:37.167Z,997.97
2022-12-14T01:14:37.132Z,997.94
2022-12-14T01:15:37.209Z,997.95
2022-12-14T01:16:37.068Z,997.95
2022-12-14T01:17:37.034Z,997.91
2022-12-14T01:18:37.001Z,997.86
2022-12-14T01:19:36.982Z,997.89
2022-12-14T01:20:36.935Z,997.87
2022-12-14T01:21:36.901Z,997.90
2022-12-14T01:22:36.867Z,997.86
2022-12-14T01:23:36.835Z,997.86
2022-12-14T01:24:36.800Z,997.83
2022-12-14T01:25:36.771Z,997.89
2022-12-14T01:26:36.735Z,997.81
2022-12-14T01:27:36.701Z,997.77
2022-12-14T01:28:36.669Z,997.81
2022-12-14T01:29:36.635Z,997.78
2022-12-14T01:30:36.604Z,997.73
2022-12-14T01:31:36.652Z,997.74
2022-12-14T01:32:36.536Z,997.72
2022-12-14T01:33:36.503Z,997.73
2022-12-14T01:34:36.530Z,997.66
2022-12-14T01:35:36.454Z,997.69
2022-12-14T01:36:36.404Z,997.72
2022-12-14T01:37:36.369Z,997.68
2022-12-14T01:38:36.339Z,997.68
2022-12-14T01:39:36.303Z,997.64
2022-12-14T01:40:36.271Z,997.65
2022-12-14T01:41:36.238Z,997.64
2022-12-14T01:42:36.208Z,997.65
2022-12-14T01:43:36.170Z,997.59
2022-12-14T01:44:36.138Z,997.54
2022-12-14T01:45:36.106Z,997.52
2022-12-14T01:46:36.188Z,997.48
2022-12-14T01:47:36.036Z,997.47
2022-12-14T01:48:36.005Z,997.45
2022-12-14T01:49:35.972Z,997.41
2022-12-14T01:50:35.941Z,997.40
2022-12-14T01:51:35.924Z,997.38
2022-12-14T01:52:35.874Z,997.36
2022-12-14T01:53:35.837Z,997.35
2022-12-14T01:54:35.808Z,997.30
2022-12-14T01:55:35.774Z,997.34
2022-12-14T01:56:35.744Z,997.37
2022-12-14T01:57:35.707Z,997.34
2022-12-14T01:58:35.677Z,997.39
2022-12-14T01:59:35.642Z,997.33
2022-12-14T02:00:35.607Z,997.32
2022-12-14T02:01:35.733Z,997.30
2022-12-14T02:02:35.830Z,997.28
2022-12-14T02:03:35.632Z,997.32
2022-12-14T02:04:35.499Z,997.28
2022-12-14T02:05:35.445Z,997.28
2022-12-14T02:06:35.407Z,997.25
2022-12-14T02:07:35.393Z,997.22
2022-12-14T02:08:35.343Z,997.24
2022-12-14T02:09:35.310Z,997.23
2022-12-14T02:10:35.278Z,997.19
2022-12-14T02:11:35.240Z,997.15
2022-12-14T02:12:35.210Z,997.17
2022-12-14T02:13:35.177Z,997.17
2022-12-14T02:14:35.145Z,997.17
2022-12-14T02:15:35.108Z,997.14
2022-12-14T02:16:35.127Z,997.18
2022-12-14T02:17:35.043Z,997.13
2022-12-14T02:18:35.030Z,997.13
2022-12-14T02:19:34.977Z,997.14
2022-12-14T02:20:34.961Z,997.12
2022-12-14T02:21:34.909Z,997.15
2022-12-14T02:22:34.894Z,997.12
2022-12-14T02:23:34.863Z,997.09
2022-12-14T02:24:34.811Z,997.07
2022-12-14T02:25:34.779Z,997.10
2022-12-14T02:26:34.748Z,997.09
2022-12-14T02:27:34.709Z,997.09
2022-12-14T02:28:34.681Z,997.07
2022-12-14T02:29:34.644Z,997.08
2022-12-14T02:30:34.617Z,997.03
2022-12-14T02:31:34.645Z,997.00
2022-12-14T02:32:34.547Z,996.98
2022-12-14T02:33:34.514Z,997.01
2022-12-14T02:34:34.481Z,996.98
2022-12-14T02:35:34.446Z,996.96
2022-12-14T02:36:34.415Z,996.99
2022-12-14T02:37:34.378Z,996.98
2022-12-14T02:38:34.349Z,996.96
2022-12-14T02:39:34.329Z,996.97
2022-12-14T02:40:34.282Z,996.98
2022-12-14T02:41:34.248Z,996.98
2022-12-14T02:42:34.215Z,996.99
2022-12-14T02:43:34.180Z,997.01
2022-12-14T02:44:34.148Z,996.97
2022-12-14T02:45:34.117Z,996.92
2022-12-14T02:46:34.169Z,996.94
2022-12-14T02:47:34.062Z,996.93
2022-12-14T02:48:34.018Z,996.91
2022-12-14T02:49:33.984Z,996.93
2022-12-14T02:50:33.948Z,996.88
2022-12-14T02:51:33.916Z,996.90
2022-12-14T02:52:33.884Z,996.86
2022-12-14T02:53:33.852Z,996.84
2022-12-14T02:54:33.820Z,996.87
2022-12-14T02:55:33.804Z,996.81
2022-12-14T02:56:33.751Z,996.86
2022-12-14T02:57:33.713Z,996.85
2022-12-14T02:58:33.684Z,996.81
2022-12-14T02:59:33.649Z,996.79
2022-12-14T03:00:33.709Z,996.71
2022-12-14T03:01:33.826Z,996.72
2022-12-14T03:02:33.622Z,996.71
2022-12-14T03:03:33.520Z,996.68
2022-12-14T03:04:33.485Z,996.73
2022-12-14T03:05:33.456Z,996.76
2022-12-14T03:06:33.418Z,996.71
2022-12-14T03:07:33.382Z,996.69
2022-12-14T03:08:33.351Z,996.74
2022-12-14T03:09:33.320Z,996.70
2022-12-14T03:10:33.282Z,996.68
2022-12-14T03:11:33.266Z,996.70
2022-12-14T03:12:33.218Z,996.64
2022-12-14T03:13:33.185Z,996.65
2022-12-14T03:14:33.153Z,996.63
2022-12-14T03:15:33.116Z,996.63
2022-12-14T03:16:33.140Z,996.55
2022-12-14T03:17:33.048Z,996.51
2022-12-14T03:18:33.019Z,996.47
2022-12-14T03:19:32.985Z,996.44
2022-12-14T03:20:32.952Z,996.48
2022-12-14T03:21:32.918Z,996.45
2022-12-14T03:22:32.883Z,996.45
2022-12-14T03:23:32.851Z,996.39
2022-12-14T03:24:32.817Z,996.41
2022-12-14T03:25:32.794Z,996.38
2022-12-14T03:26:32.752Z,996.39
2022-12-14T03:27:32.737Z,996.40
2022-12-14T03:28:32.698Z,996.38
2022-12-14T03:29:32.653Z,996.35
2022-12-14T03:30:58.923Z,996.34
2022-12-14T03:31:32.627Z,996.38
2022-12-14T03:32:32.551Z,996.35
2022-12-14T03:33:32.518Z,996.31
2022-12-14T03:34:32.495Z,996.29
2022-12-14T03:35:32.455Z,996.25
2022-12-14T03:36:32.418Z,996.26
2022-12-14T03:37:32.384Z,996.25
2022-12-14T03:38:32.356Z,996.22
2022-12-14T03:39:32.317Z,996.23
2022-12-14T03:40:32.288Z,996.26
2022-12-14T03:41:32.251Z,996.26
2022-12-14T03:42:32.220Z,996.21
2022-12-14T03:43:32.201Z,996.20
2022-12-14T03:44:32.150Z,996.17
2022-12-14T03:45:32.138Z,996.21
2022-12-14T03:46:32.086Z,996.19
2022-12-14T03:47:32.051Z,996.18
2022-12-14T03:48:32.017Z,996.17
2022-12-14T03:49:31.984Z,996.21
2022-12-14T03:50:31.951Z,996.18
2022-12-14T03:51:31.920Z,996.17
2022-12-14T03:52:31.885Z,996.18
2022-12-14T03:53:31.856Z,996.15
2022-12-14T03:54:31.816Z,996.17
2022-12-14T03:55:31.782Z,996.17
2022-12-14T03:56:31.752Z,996.18
2022-12-14T03:57:31.716Z,996.12
2022-12-14T03:58:31.688Z,996.10
2022-12-14T03:59:31.666Z,996.08
2022-12-14T04:00:31.621Z,996.06
2022-12-14T04:01:31.756Z,996.03
2022-12-14T04:02:34.027Z,996.08
2022-12-14T04:03:31.716Z,996.06
2022-12-14T04:04:31.483Z,996.00
2022-12-14T04:05:31.449Z,995.99
2022-12-14T04:06:31.416Z,995.98
2022-12-14T04:07:31.385Z,995.98
2022-12-14T04:08:31.349Z,995.99
2022-12-14T04:09:31.314Z,996.00
2022-12-14T04:10:31.289Z,995.99
2022-12-14T04:11:31.255Z,995.95
2022-12-14T04:12:31.214Z,995.95
2022-12-14T04:13:31.370Z,995.88
2022-12-14T04:14:31.148Z,995.89
2022-12-14T04:15:31.132Z,995.87
2022-12-14T04:16:31.128Z,995.86
2022-12-14T04:17:31.046Z,995.87
2022-12-14T04:18:31.019Z,995.86
2022-12-14T04:19:30.979Z,995.82
2022-12-14T04:20:30.946Z,995.92
2022-12-14T04:21:30.911Z,995.84
2022-12-14T04:22:30.884Z,995.82
2022-12-14T04:23:30.847Z,995.83
2022-12-14T04:24:30.814Z,995.84
2022-12-14T04:25:30.780Z,995.75
2022-12-14T04:26:30.746Z,995.76
2022-12-14T04:27:30.713Z,995.75
2022-12-14T04:28:30.677Z,995.75
2022-12-14T04:29:30.643Z,995.71
2022-12-14T04:30:30.612Z,995.75
2022-12-14T04:31:30.689Z,995.75
2022-12-14T04:32:30.614Z,995.77
2022-12-14T04:33:31.000Z,995.74
2022-12-14T04:34:30.481Z,995.74
2022-12-14T04:35:30.440Z,995.66
2022-12-14T04:36:30.416Z,995.69
2022-12-14T04:37:30.379Z,995.73
2022-12-14T04:38:30.345Z,995.68
2022-12-14T04:39:30.308Z,995.68
2022-12-14T04:40:30.278Z,995.64
2022-12-14T04:41:30.243Z,995.64
2022-12-14T04:42:30.209Z,995.63
2022-12-14T04:43:30.602Z,995.66
2022-12-14T04:44:30.140Z,995.60
2022-12-14T04:45:30.157Z,995.59
2022-12-14T04:46:30.082Z,995.60
2022-12-14T04:47:30.059Z,995.60
2022-12-14T04:48:30.006Z,995.59
2022-12-14T04:49:29.975Z,995.55
2022-12-14T04:50:29.939Z,995.56
2022-12-14T04:51:29.907Z,995.55
2022-12-14T04:52:29.873Z,995.58
2022-12-14T04:53:30.259Z,995.55
2022-12-14T04:54:29.806Z,995.58
2022-12-14T04:55:29.774Z,995.60
2022-12-14T04:56:29.740Z,995.53
2022-12-14T04:57:29.706Z,995.55
2022-12-14T04:58:29.670Z,995.47
2022-12-14T04:59:29.641Z,995.48
2022-12-14T05:00:29.603Z,995.48
2022-12-14T05:01:29.719Z,995.37
2022-12-14T05:02:29.640Z,995.34
2022-12-14T05:03:30.152Z,995.35
2022-12-14T05:04:29.467Z,995.34
2022-12-14T05:05:29.434Z,995.33
2022-12-14T05:06:29.404Z,995.30
2022-12-14T05:07:29.369Z,995.29
2022-12-14T05:08:29.337Z,995.33
2022-12-14T05:09:29.306Z,995.29
2022-12-14T05:10:29.269Z,995.30
2022-12-14T05:11:55.013Z,995.27
2022-12-14T05:12:29.196Z,995.26
2022-12-14T05:13:29.480Z,995.24
2022-12-14T05:14:29.143Z,995.19
2022-12-14T05:15:29.100Z,995.21
2022-12-14T05:16:29.079Z,995.18
2022-12-14T05:17:29.034Z,995.21
2022-12-14T05:18:28.999Z,995.21
2022-12-14T05:19:28.987Z,995.20
2022-12-14T05:20:28.929Z,995.18
2022-12-14T05:21:28.897Z,995.13
2022-12-14T05:22:28.862Z,995.14
2022-12-14T05:23:29.232Z,995.13
2022-12-14T05:24:28.794Z,995.07
2022-12-14T05:25:28.765Z,995.08
2022-12-14T05:26:28.728Z,995.06
2022-12-14T05:27:28.695Z,995.08
2022-12-14T05:28:28.660Z,995.09
2022-12-14T05:29:28.627Z,995.09
2022-12-14T05:30:28.631Z,995.12
2022-12-14T05:31:28.559Z,995.10
2022-12-14T05:32:28.526Z,995.06
2022-12-14T05:33:28.950Z,995.08
2022-12-14T05:34:28.458Z,995.10
2022-12-14T05:35:28.444Z,995.05
2022-12-14T05:36:28.393Z,995.07
2022-12-14T05:37:28.359Z,995.08
2022-12-14T05:38:28.323Z,995.06
2022-12-14T05:39:28.295Z,995.08
2022-12-14T05:40:28.256Z,995.05
2022-12-14T05:41:28.227Z,995.08
2022-12-14T05:42:28.189Z,995.02
2022-12-14T05:43:28.485Z,995.04
2022-12-14T05:44:28.120Z,995.08
2022-12-14T05:45:28.091Z,995.03
2022-12-14T05:46:28.116Z,995.04
2022-12-14T05:47:28.021Z,995.03
2022-12-14T05:48:27.986Z,995.05
2022-12-14T05:49:27.953Z,995.01
2022-12-14T05:50:27.918Z,995.08
2022-12-14T05:51:27.907Z,995.01
2022-12-14T05:52:27.850Z,995.05
2022-12-14T05:53:28.235Z,995.01
2022-12-14T05:54:27.784Z,994.99
2022-12-14T05:55:27.751Z,994.97
2022-12-14T05:56:27.719Z,994.99
2022-12-14T05:57:27.684Z,994.93
2022-12-14T05:58:27.656Z,994.94
2022-12-14T05:59:27.617Z,994.92
2022-12-14T06:00:27.581Z,994.93
2022-12-14T06:01:27.602Z,994.92
2022-12-14T06:02:27.667Z,994.92
2022-12-14T06:03:27.875Z,994.93
2022-12-14T06:04:27.472Z,994.91
2022-12-14T06:05:27.415Z,994.93
2022-12-14T06:06:27.382Z,994.91
2022-12-14T06:07:28.177Z,994.91
2022-12-14T06:08:27.311Z,994.91
2022-12-14T06:09:27.281Z,994.89
2022-12-14T06:10:27.246Z,994.88
2022-12-14T06:11:27.213Z,994.86
2022-12-14T06:12:27.179Z,994.87
2022-12-14T06:13:27.525Z,994.83
2022-12-14T06:14:27.113Z,994.83
2022-12-14T06:15:30.798Z,994.83
2022-12-14T06:16:27.077Z,994.78
2022-12-14T06:17:27.011Z,994.74
2022-12-14T06:18:26.990Z,994.73
2022-12-14T06:19:26.943Z,994.68
2022-12-14T06:20:26.908Z,994.65
2022-12-14T06:21:26.917Z,994.65
2022-12-14T06:22:26.837Z,994.62
2022-12-14T06:23:27.287Z,994.67
2022-12-14T06:24:26.774Z,994.68
2022-12-14T06:25:26.742Z,994.64
2022-12-14T06:26:26.703Z,994.66
2022-12-14T06:27:26.671Z,994.67
2022-12-14T06:28:26.644Z,994.68
2022-12-14T06:29:26.657Z,994.69
2022-12-14T06:30:26.579Z,994.72
2022-12-14T06:31:26.585Z,994.66
2022-12-14T06:32:26.505Z,994.66
2022-12-14T06:33:26.863Z,994.68
2022-12-14T06:34:28.681Z,994.65
2022-12-14T06:35:26.401Z,994.62
2022-12-14T06:36:26.367Z,994.61
2022-12-14T06:37:26.336Z,994.56
2022-12-14T06:38:26.302Z,994.60
2022-12-14T06:39:26.288Z,994.53
2022-12-14T06:40:26.233Z,994.57
2022-12-14T06:41:26.201Z,994.55
2022-12-14T06:42:26.167Z,994.56
2022-12-14T06:43:26.674Z,994.53
2022-12-14T06:44:26.099Z,994.50
2022-12-14T06:45:26.070Z,994.51
2022-12-14T06:46:26.061Z,994.51
2022-12-14T06:47:26.000Z,994.52
2022-12-14T06:48:25.964Z,994.52
2022-12-14T06:49:25.932Z,994.52
2022-12-14T06:50:25.898Z,994.59
2022-12-14T06:51:25.867Z,994.59
2022-12-14T06:52:27.133Z,994.61
2022-12-14T06:53:26.192Z,994.60
2022-12-14T06:54:25.763Z,994.57
2022-12-14T06:55:25.747Z,994.58
2022-12-14T06:56:25.698Z,994.58
2022-12-14T06:57:25.665Z,994.60
2022-12-14T06:58:30.951Z,994.61
2022-12-14T06:59:25.596Z,994.60
2022-12-14T07:00:25.567Z,994.63
2022-12-14T07:01:25.669Z,994.60
2022-12-14T07:02:25.791Z,994.57
2022-12-14T07:03:25.926Z,994.54
2022-12-14T07:04:25.434Z,994.52
2022-12-14T07:05:25.396Z,994.51
2022-12-14T07:06:25.369Z,994.51
2022-12-14T07:07:25.331Z,994.54
2022-12-14T07:08:25.294Z,994.52
2022-12-14T07:09:25.263Z,994.50
2022-12-14T07:10:25.226Z,994.48
2022-12-14T07:11:25.216Z,994.49
2022-12-14T07:12:25.160Z,994.50
2022-12-14T07:13:25.363Z,994.49
2022-12-14T07:14:25.094Z,994.50
2022-12-14T07:15:25.063Z,994.53
2022-12-14T07:16:25.108Z,994.52
2022-12-14T07:17:24.993Z,994.49
2022-12-14T07:18:24.959Z,994.54
2022-12-14T07:19:24.929Z,994.44
2022-12-14T07:20:24.895Z,994.42
2022-12-14T07:21:24.859Z,994.46
2022-12-14T07:22:24.825Z,994.46
2022-12-14T07:23:28.110Z,994.48
2022-12-14T07:24:24.758Z,994.48
2022-12-14T07:25:24.726Z,994.54
2022-12-14T07:26:24.695Z,994.51
2022-12-14T07:27:24.700Z,994.54
2022-12-14T07:28:24.625Z,994.54
2022-12-14T07:29:27.332Z,994.52
2022-12-14T07:30:24.556Z,994.53
2022-12-14T07:31:24.717Z,994.52
2022-12-14T07:32:24.597Z,994.51
2022-12-14T07:33:24.716Z,994.49
2022-12-14T07:34:24.467Z,994.49
2022-12-14T07:35:24.425Z,994.49
2022-12-14T07:36:24.404Z,994.52
2022-12-14T07:37:24.358Z,994.53
2022-12-14T07:38:24.351Z,994.50
2022-12-14T07:39:24.385Z,994.48
2022-12-14T07:40:24.334Z,994.47
2022-12-14T07:41:24.226Z,994.45
2022-12-14T07:42:24.202Z,994.46
2022-12-14T07:43:24.382Z,994.45
2022-12-14T07:44:24.135Z,994.49
2022-12-14T07:45:24.071Z,994.47
2022-12-14T07:46:24.176Z,994.43
2022-12-14T07:47:24.105Z,994.45
2022-12-14T07:48:24.087Z,994.43
2022-12-14T07:49:23.977Z,994.45
2022-12-14T07:50:23.947Z,994.47
2022-12-14T07:51:23.880Z,994.50
2022-12-14T07:52:23.928Z,994.48
2022-12-14T07:53:23.884Z,994.50
2022-12-14T07:54:23.794Z,994.47
2022-12-14T07:55:23.750Z,994.44
2022-12-14T07:56:23.730Z,994.47
2022-12-14T07:57:23.688Z,994.49
2022-12-14T07:58:23.768Z,994.46
2022-12-14T07:59:23.665Z,994.51
2022-12-14T08:00:23.550Z,994.51
2022-12-14T08:01:23.634Z,994.51
2022-12-14T08:02:23.621Z,994.51
2022-12-14T08:03:23.446Z,994.52
2022-12-14T08:04:23.518Z,994.49
2022-12-14T08:05:23.381Z,994.53
2022-12-14T08:06:23.345Z,994.48
2022-12-14T08:07:23.313Z,994.50
2022-12-14T08:08:23.282Z,994.51
2022-12-14T08:09:23.248Z,994.50
2022-12-14T08:10:23.213Z,994.47
2022-12-14T08:11:23.176Z,994.47
2022-12-14T08:12:23.165Z,994.47
2022-12-14T08:13:23.113Z,994.44
2022-12-14T08:14:23.078Z,994.45
2022-12-14T08:15:23.063Z,994.46
2022-12-14T08:16:23.064Z,994.46
2022-12-14T08:17:22.977Z,994.46
2022-12-14T08:18:22.946Z,994.43
2022-12-14T08:19:22.914Z,994.42
2022-12-14T08:20:22.877Z,994.45
2022-12-14T08:21:22.848Z,994.48
2022-12-14T08:22:22.813Z,994.45
2022-12-14T08:23:22.774Z,994.51
2022-12-14T08:24:22.741Z,994.50
2022-12-14T08:25:22.708Z,994.49
2022-12-14T08:26:22.674Z,994.50
2022-12-14T08:27:22.644Z,994.52
2022-12-14T08:28:22.608Z,994.50
2022-12-14T08:29:22.575Z,994.51
2022-12-14T08:30:22.541Z,994.51
2022-12-14T08:31:22.572Z,994.52
2022-12-14T08:32:22.482Z,994.50
2022-12-14T08:33:22.441Z,994.50
2022-12-14T08:34:22.405Z,994.51
2022-12-14T08:35:22.372Z,994.50
2022-12-14T08:36:22.341Z,994.51
2022-12-14T08:37:22.312Z,994.53
2022-12-14T08:38:22.271Z,994.50
2022-12-14T08:39:22.237Z,994.51
2022-12-14T08:40:22.205Z,994.47
2022-12-14T08:41:22.192Z,994.49
2022-12-14T08:42:22.141Z,994.47
2022-12-14T08:43:25.104Z,994.45
2022-12-14T08:44:22.081Z,994.43
2022-12-14T08:45:22.133Z,994.46
2022-12-14T08:46:22.092Z,994.44
2022-12-14T08:47:21.991Z,994.44
2022-12-14T08:48:21.939Z,994.45
2022-12-14T08:49:21.906Z,994.46
2022-12-14T08:50:21.871Z,994.47
2022-12-14T08:51:21.833Z,994.47
2022-12-14T08:52:21.800Z,994.45
2022-12-14T08:53:21.769Z,994.47
2022-12-14T08:54:21.732Z,994.47
2022-12-14T08:55:27.595Z,994.47
2022-12-14T08:56:21.668Z,994.46
2022-12-14T08:57:21.635Z,994.47
2022-12-14T08:58:21.600Z,994.46
2022-12-14T08:59:52.214Z,994.47
2022-12-14T09:00:21.594Z,994.45
2022-12-14T09:01:23.745Z,994.40
2022-12-14T09:02:21.624Z,994.43
2022-12-14T09:03:21.477Z,994.43
2022-12-14T09:04:21.398Z,994.48
2022-12-14T09:05:21.363Z,994.51
2022-12-14T09:06:21.334Z,994.55
2022-12-14T09:07:21.294Z,994.53
2022-12-14T09:08:21.263Z,994.53
2022-12-14T09:09:21.229Z,994.57
2022-12-14T09:10:21.195Z,994.57
2022-12-14T09:11:21.159Z,994.55
2022-12-14T09:12:21.145Z,994.54
2022-12-14T09:13:21.093Z,994.53
2022-12-14T09:14:21.061Z,994.60
2022-12-14T09:15:21.022Z,994.58
2022-12-14T09:16:21.082Z,994.61
2022-12-14T09:17:20.958Z,994.58
2022-12-14T09:18:20.924Z,994.56
2022-12-14T09:19:20.889Z,994.57
2022-12-14T09:20:20.855Z,994.60
2022-12-14T09:21:20.821Z,994.65
2022-12-14T09:22:21.732Z,994.63
2022-12-14T09:23:20.749Z,994.59
2022-12-14T09:24:20.718Z,994.62
2022-12-14T09:25:20.683Z,994.57
2022-12-14T09:26:20.652Z,994.61
2022-12-14T09:27:20.615Z,994.58
2022-12-14T09:28:20.580Z,994.61
2022-12-14T09:29:20.549Z,994.63
2022-12-14T09:30:26.455Z,994.67
2022-12-14T09:31:20.593Z,994.70
2022-12-14T09:32:20.449Z,994.70
2022-12-14T09:33:20.411Z,994.73
2022-12-14T09:34:20.380Z,994.75
2022-12-14T09:35:20.344Z,994.77
2022-12-14T09:36:20.311Z,994.81
2022-12-14T09:37:20.299Z,994.82
2022-12-14T09:38:20.244Z,994.82
2022-12-14T09:39:20.208Z,994.80
2022-12-14T09:40:20.261Z,994.79
2022-12-14T09:41:20.141Z,994.84
2022-12-14T09:42:20.111Z,994.72
2022-12-14T09:43:20.072Z,994.75
2022-12-14T09:44:20.039Z,994.70
2022-12-14T09:45:20.009Z,994.72
2022-12-14T09:46:20.009Z,994.74
2022-12-14T09:47:19.937Z,994.69
2022-12-14T09:48:19.938Z,994.74
2022-12-14T09:49:19.872Z,994.73
2022-12-14T09:50:20.060Z,994.71
2022-12-14T09:51:19.865Z,994.67
2022-12-14T09:52:19.775Z,994.68
2022-12-14T09:53:19.737Z,994.66
2022-12-14T09:54:19.709Z,994.69
2022-12-14T09:55:19.733Z,994.68
2022-12-14T09:56:19.649Z,994.64
2022-12-14T09:57:19.607Z,994.65
2022-12-14T09:58:19.574Z,994.66
2022-12-14T09:59:19.540Z,994.68
2022-12-14T10:00:19.615Z,994.62
2022-12-14T10:01:19.720Z,994.59
2022-12-14T10:02:30.845Z,994.60
2022-12-14T10:03:19.662Z,994.57
2022-12-14T10:04:19.445Z,994.54
2022-12-14T10:05:19.355Z,994.50
2022-12-14T10:06:19.321Z,994.57
2022-12-14T10:07:19.281Z,994.52
2022-12-14T10:08:19.246Z,994.54
2022-12-14T10:09:19.220Z,994.53
2022-12-14T10:10:19.191Z,994.56
2022-12-14T10:11:19.149Z,994.52
2022-12-14T10:12:19.120Z,994.56
2022-12-14T10:13:19.091Z,994.56
2022-12-14T10:14:19.057Z,994.57
2022-12-14T10:15:19.025Z,994.56
2022-12-14T10:16:19.093Z,994.56
2022-12-14T10:17:18.961Z,994.58
2022-12-14T10:18:41.320Z,994.55
2022-12-14T10:19:18.897Z,994.52
2022-12-14T10:20:18.871Z,994.53
2022-12-14T10:21:18.835Z,994.55
2022-12-14T10:22:18.806Z,994.52
2022-12-14T10:23:22.762Z,994.49
2022-12-14T10:24:18.791Z,994.52
2022-12-14T10:25:18.708Z,994.52
2022-12-14T10:26:18.681Z,994.48
2022-12-14T10:27:18.657Z,994.49
2022-12-14T10:28:18.615Z,994.50
2022-12-14T10:29:18.581Z,994.51
2022-12-14T10:30:18.614Z,994.47
2022-12-14T10:31:18.586Z,994.47
2022-12-14T10:32:18.488Z,994.52
2022-12-14T10:33:18.482Z,994.44
2022-12-14T10:34:18.509Z,994.57
2022-12-14T10:35:18.415Z,994.54
2022-12-14T10:36:18.378Z,994.55
2022-12-14T10:37:18.359Z,994.58
2022-12-14T10:38:18.305Z,994.53
2022-12-14T10:39:18.274Z,994.55
2022-12-14T10:40:29.130Z,994.55
2022-12-14T10:41:18.209Z,994.55
2022-12-14T10:42:18.209Z,994.57
2022-12-14T10:43:18.170Z,994.55
2022-12-14T10:44:18.120Z,994.55
2022-12-14T10:45:42.989Z,994.60
2022-12-14T10:46:18.079Z,994.57
2022-12-14T10:47:18.045Z,994.62
2022-12-14T10:48:18.007Z,994.62
2022-12-14T10:49:17.968Z,994.60
2022-12-14T10:50:17.943Z,994.63
2022-12-14T10:51:17.924Z,994.66
2022-12-14T10:52:17.878Z,994.62
2022-12-14T10:53:17.850Z,994.59
2022-12-14T10:54:17.833Z,994.60
2022-12-14T10:55:17.804Z,994.59
2022-12-14T10:56:17.915Z,994.56
2022-12-14T10:57:17.746Z,994.52
2022-12-14T10:58:17.825Z,994.52
2022-12-14T10:59:17.713Z,994.50
2022-12-14T11:00:23.226Z,994.48
2022-12-14T11:01:17.716Z,994.50
2022-12-14T11:02:17.993Z,994.53
2022-12-14T11:03:17.688Z,994.55
2022-12-14T11:04:17.543Z,994.58
2022-12-14T11:05:17.499Z,994.55
2022-12-14T11:06:17.479Z,994.44
2022-12-14T11:07:17.448Z,994.35
2022-12-14T11:08:17.407Z,994.36
2022-12-14T11:09:17.372Z,994.41
2022-12-14T11:10:17.348Z,994.35
2022-12-14T11:11:19.440Z,994.33
2022-12-14T11:12:17.421Z,994.35
2022-12-14T11:13:17.257Z,994.35
2022-12-14T11:14:17.231Z,994.35
2022-12-14T11:15:17.201Z,994.37
2022-12-14T11:16:17.205Z,994.32
2022-12-14T11:17:17.201Z,994.29
2022-12-14T11:18:17.367Z,994.33
2022-12-14T11:19:17.076Z,994.27
2022-12-14T11:20:17.049Z,994.32
2022-12-14T11:21:17.019Z,994.28
2022-12-14T11:22:22.333Z,994.28
2022-12-14T11:23:16.977Z,994.24
2022-12-14T11:24:16.945Z,994.22
2022-12-14T11:25:16.933Z,994.17
2022-12-14T11:26:16.865Z,994.17
2022-12-14T11:27:16.847Z,994.09
2022-12-14T11:28:16.805Z,994.15
2022-12-14T11:29:16.770Z,994.12
2022-12-14T11:30:16.755Z,994.13
2022-12-14T11:31:16.754Z,994.13
2022-12-14T11:32:16.691Z,994.18
2022-12-14T11:33:16.661Z,994.22
2022-12-14T11:34:21.769Z,994.18
2022-12-14T11:35:16.608Z,994.26
2022-12-14T11:36:16.556Z,994.21
2022-12-14T11:37:16.522Z,994.24
2022-12-14T11:38:16.494Z,994.24
2022-12-14T11:39:16.483Z,994.20
2022-12-14T11:40:16.433Z,994.22
2022-12-14T11:41:16.408Z,994.20
2022-12-14T11:42:16.385Z,994.21
2022-12-14T11:43:16.350Z,994.21
2022-12-14T11:44:16.316Z,994.19
2022-12-14T11:45:16.276Z,994.23
2022-12-14T11:46:16.283Z,994.27
2022-12-14T11:47:16.212Z,994.24
2022-12-14T11:48:16.184Z,994.26
2022-12-14T11:49:16.155Z,994.24
2022-12-14T11:50:16.143Z,994.23
2022-12-14T11:51:16.094Z,994.24
2022-12-14T11:52:16.050Z,994.26
2022-12-14T11:53:16.025Z,994.25
2022-12-14T11:54:15.989Z,994.20
2022-12-14T11:55:17.341Z,994.23
2022-12-14T11:56:15.930Z,994.20
2022-12-14T11:57:15.901Z,994.18
2022-12-14T11:58:15.861Z,994.20
2022-12-14T11:59:15.827Z,994.17
2022-12-14T12:00:15.792Z,994.18
2022-12-14T12:01:15.855Z,994.22
2022-12-14T12:02:15.788Z,994.21
2022-12-14T12:03:15.774Z,994.17
2022-12-14T12:04:15.756Z,994.17
2022-12-14T12:05:15.812Z,994.19
2022-12-14T12:06:15.602Z,994.18
2022-12-14T12:07:15.569Z,994.21
2022-12-14T12:08:15.534Z,994.22
2022-12-14T12:09:15.501Z,994.19
2022-12-14T12:10:15.681Z,994.19
2022-12-14T12:11:15.438Z,994.20
2022-12-14T12:12:15.406Z,994.18
2022-12-14T12:13:15.386Z,994.19
2022-12-14T12:14:15.396Z,994.22
2022-12-14T12:15:15.526Z,994.18
2022-12-14T12:16:15.319Z,994.18
2022-12-14T12:17:15.246Z,994.20
2022-12-14T12:18:15.214Z,994.16
2022-12-14T12:19:15.179Z,994.19
2022-12-14T12:20:15.149Z,994.10
2022-12-14T12:21:15.113Z,994.10
2022-12-14T12:22:15.084Z,994.14
2022-12-14T12:23:15.047Z,994.06
2022-12-14T12:24:15.053Z,994.12
2022-12-14T12:25:36.721Z,994.06
2022-12-14T12:26:14.954Z,994.06
2022-12-14T12:27:14.918Z,994.01
2022-12-14T12:28:14.893Z,994.08